Terminal Aerodrome Forecast
Issued by NWS

Home | Current Version | Previous Version | Text Only | Print | Product List | Glossary On
Versions: 1 2 3 4 5 6 7 8 9 10 11 12 13 14 15
000
FTUS41 KLWX 211500 AAB
TAFMTN
TAF AMD
KMTN 211510Z 2115/2212 00000KT P6SM SCT009
     FM211600 15003KT P6SM SCT015
     FM211700 14006KT P6SM SCT250
     FM211900 23009KT P6SM BKN060
     FM220300 28005KT P6SM BKN080
     FM220900 30012G20KT P6SM BKN250=

USA.gov is the U.S. government's official web portal to all federal, state and local government web resources and services.